createdAt,value
2023-04-03T00:00:25.524Z,98869.63
2023-04-03T00:03:29.377Z,98874.25
2023-04-03T00:06:33.114Z,98883.69
2023-04-03T00:09:38.512Z,98874.38
2023-04-03T00:12:42.009Z,98881.75
2023-04-03T00:15:45.753Z,98877.56
2023-04-03T00:18:49.464Z,98877.53
2023-04-03T00:21:54.692Z,98878.66
2023-04-03T00:24:59.944Z,98873.44
2023-04-03T00:28:04.352Z,98873.25
2023-04-03T00:31:07.913Z,98885.94
2023-04-03T00:34:12.787Z,98883.69
2023-04-03T00:37:16.573Z,98873.31
2023-04-03T00:40:24.262Z,98889.31
2023-04-03T00:43:28.766Z,98886.44
2023-04-03T00:46:32.428Z,98882.59
2023-04-03T00:49:36.494Z,98888.88
2023-04-03T00:52:41.553Z,98878.69
2023-04-03T00:55:48.874Z,98886.38
2023-04-03T00:58:56.552Z,98877.84
2023-04-03T01:02:01.623Z,98876.44
2023-04-03T01:05:06.334Z,98883.09
2023-04-03T01:08:10.885Z,98883.69
2023-04-03T01:11:16.262Z,98872.28
2023-04-03T01:14:21.024Z,98871.50
2023-04-03T01:17:31.768Z,98869.28
2023-04-03T01:21:12.215Z,98871.84
2023-04-03T01:24:34.813Z,98875.75
2023-04-03T01:27:42.054Z,98874.69
2023-04-03T01:30:50.137Z,98872.66
2023-04-03T01:33:56.654Z,98876.94
2023-04-03T01:37:01.086Z,98868.13
2023-04-03T01:40:05.323Z,98871.25
2023-04-03T01:43:09.443Z,98863.09
2023-04-03T01:46:13.184Z,98867.09
2023-04-03T01:49:18.624Z,98876.91
2023-04-03T01:52:22.544Z,98881.78
2023-04-03T01:55:28.333Z,98884.19
2023-04-03T01:58:31.955Z,98883.25
2023-04-03T02:01:35.692Z,98897.31
2023-04-03T02:04:41.038Z,98893.31
2023-04-03T02:07:44.661Z,98897.31
2023-04-03T02:10:50.066Z,98893.47
2023-04-03T02:13:54.312Z,98889.84
2023-04-03T02:16:58.068Z,98885.59
2023-04-03T02:20:04.317Z,98885.88
2023-04-03T02:23:08.187Z,98887.56
2023-04-03T02:26:14.335Z,98880.66
2023-04-03T02:29:18.061Z,98880.88
2023-04-03T02:32:21.745Z,98879.69
2023-04-03T02:35:27.244Z,98882.03
2023-04-03T02:38:34.016Z,98886.44
2023-04-03T02:41:37.735Z,98886.44
2023-04-03T02:44:47.101Z,98896.56
2023-04-03T02:47:50.848Z,98888.88
2023-04-03T02:50:56.402Z,98882.22
2023-04-03T02:53:59.996Z,98884.94
2023-04-03T02:57:10.084Z,98884.75
2023-04-03T03:00:15.654Z,98879.81
2023-04-03T03:03:19.332Z,98883.19
2023-04-03T03:06:24.439Z,98879.13
2023-04-03T03:09:28.207Z,98867.31
2023-04-03T03:12:32.687Z,98869.09
2023-04-03T03:15:37.311Z,98861.78
2023-04-03T03:18:40.997Z,98860.84
2023-04-03T03:21:46.333Z,98862.84
2023-04-03T03:24:49.874Z,98864.47
2023-04-03T03:27:53.534Z,98852.63
2023-04-03T03:30:58.000Z,98850.34
2023-04-03T03:34:01.902Z,98837.34
2023-04-03T03:37:07.061Z,98841.78
2023-04-03T03:40:14.218Z,98840.03
2023-04-03T03:43:18.383Z,98847.22
2023-04-03T03:46:23.790Z,98849.69
2023-04-03T03:49:27.629Z,98855.44
2023-04-03T03:52:32.859Z,98855.41
2023-04-03T03:55:36.916Z,98856.31
2023-04-03T03:58:41.076Z,98867.16
2023-04-03T04:01:45.697Z,98863.72
2023-04-03T04:04:51.284Z,98875.69
2023-04-03T04:07:56.636Z,98882.59
2023-04-03T04:11:01.735Z,98886.25
2023-04-03T04:14:06.325Z,98885.44
2023-04-03T04:17:11.364Z,98895.75
2023-04-03T04:20:15.156Z,98889.25
2023-04-03T04:23:21.205Z,98900.53
2023-04-03T04:26:26.646Z,98905.84
2023-04-03T04:29:30.896Z,98907.03
2023-04-03T04:32:34.964Z,98911.72
2023-04-03T04:35:39.545Z,98913.00
2023-04-03T04:38:45.001Z,98908.84
2023-04-03T04:41:48.923Z,98915.50
2023-04-03T04:44:52.785Z,98916.13
2023-04-03T04:47:58.221Z,98909.16
2023-04-03T04:51:03.161Z,98903.81
2023-04-03T04:54:08.607Z,98913.38
2023-04-03T04:57:12.785Z,98916.53
2023-04-03T05:00:18.042Z,98921.06
2023-04-03T05:03:22.420Z,98944.44
2023-04-03T05:06:26.515Z,98933.22
2023-04-03T05:09:33.354Z,98936.94
2023-04-03T05:12:37.181Z,98939.56
2023-04-03T05:15:42.427Z,98931.13
2023-04-03T05:18:46.731Z,98939.31
2023-04-03T05:21:56.059Z,98942.16
2023-04-03T05:25:02.045Z,98948.84
2023-04-03T05:28:05.795Z,98958.41
2023-04-03T05:31:09.765Z,98956.38
2023-04-03T05:34:14.205Z,98964.94
2023-04-03T05:37:18.909Z,98958.22
2023-04-03T05:40:24.764Z,98949.78
2023-04-03T05:43:31.344Z,98961.81
2023-04-03T05:46:35.551Z,98954.78
2023-04-03T05:49:43.003Z,98958.78
2023-04-03T05:52:52.410Z,98964.91
2023-04-03T05:55:58.355Z,98968.44
2023-04-03T05:59:03.242Z,98969.25
2023-04-03T06:02:07.462Z,98971.16
2023-04-03T06:05:14.482Z,98969.34
2023-04-03T06:08:18.338Z,98975.47
2023-04-03T06:11:24.021Z,98962.91
2023-04-03T06:14:28.112Z,98968.34
2023-04-03T06:17:32.368Z,98973.13
2023-04-03T06:20:36.347Z,98979.94
2023-04-03T06:23:41.881Z,98979.13
2023-04-03T06:26:47.473Z,98975.06
2023-04-03T06:29:51.163Z,98974.84
2023-04-03T06:32:55.045Z,98966.28
2023-04-03T06:36:00.535Z,98956.91
2023-04-03T06:39:04.670Z,98959.47
2023-04-03T06:42:09.954Z,98963.78
2023-04-03T06:45:23.009Z,98983.97
2023-04-03T06:48:26.813Z,98987.75
2023-04-03T06:51:32.370Z,98993.88
2023-04-03T06:54:36.142Z,98989.72
2023-04-03T06:57:41.322Z,98982.34
2023-04-03T07:00:45.075Z,98980.19
2023-04-03T07:03:49.188Z,98983.91
2023-04-03T07:06:53.702Z,98990.47
2023-04-03T07:09:57.501Z,98989.09
2023-04-03T07:13:03.047Z,99000.22
2023-04-03T07:16:07.878Z,99002.56
2023-04-03T07:19:11.753Z,98993.53
2023-04-03T07:22:15.512Z,98997.81
2023-04-03T07:25:19.369Z,98985.63
2023-04-03T07:28:25.540Z,98977.66
2023-04-03T07:31:29.649Z,98975.66
2023-04-03T07:34:33.826Z,98978.34
2023-04-03T07:37:37.765Z,98983.00
2023-04-03T07:40:42.497Z,98977.56
2023-04-03T07:43:48.181Z,98977.59
2023-04-03T07:46:52.307Z,98978.38
2023-04-03T07:49:56.005Z,98970.75
2023-04-03T07:52:59.815Z,98971.44
2023-04-03T07:56:04.011Z,98965.81
2023-04-03T07:59:09.347Z,98967.88
2023-04-03T08:02:13.720Z,98967.03
2023-04-03T08:05:17.579Z,98955.53
2023-04-03T08:08:23.410Z,98955.47
2023-04-03T08:11:28.030Z,98953.06
2023-04-03T08:14:35.945Z,98956.53
2023-04-03T08:17:39.770Z,98952.53
2023-04-03T08:20:43.753Z,98950.28
2023-04-03T08:23:50.323Z,98938.59
2023-04-03T08:26:54.242Z,98946.72
2023-04-03T08:29:59.808Z,98943.06
2023-04-03T08:33:03.950Z,98940.13
2023-04-03T08:36:09.216Z,98941.41
2023-04-03T08:39:13.493Z,98942.94
2023-04-03T08:42:26.767Z,98928.78
2023-04-03T08:45:44.587Z,98914.59
2023-04-03T08:48:49.629Z,98911.88
2023-04-03T08:51:55.144Z,98912.06
2023-04-03T08:55:02.469Z,98899.47
2023-04-03T08:58:08.950Z,98891.56
2023-04-03T09:01:22.746Z,98895.13
2023-04-03T09:04:30.539Z,98904.94
2023-04-03T09:07:41.640Z,98907.28
2023-04-03T09:10:46.227Z,98909.31
2023-04-03T09:13:57.022Z,98910.63
2023-04-03T09:17:06.166Z,98900.75
2023-04-03T09:20:20.909Z,98903.75
2023-04-03T09:23:30.747Z,98902.50
2023-04-03T09:26:39.283Z,98903.59
2023-04-03T09:29:46.256Z,98895.88
2023-04-03T09:32:53.374Z,98894.03
2023-04-03T09:35:57.336Z,98887.84
2023-04-03T09:39:07.221Z,98884.78
2023-04-03T09:42:21.659Z,98881.31
2023-04-03T09:45:28.940Z,98887.81
2023-04-03T09:48:34.209Z,98881.66
2023-04-03T09:51:38.469Z,98874.72
2023-04-03T09:54:42.410Z,98863.00
2023-04-03T09:57:47.161Z,98856.09
2023-04-03T10:00:57.050Z,98858.16
2023-04-03T10:04:11.972Z,98876.94
2023-04-03T10:07:37.749Z,98887.69
2023-04-03T10:10:42.096Z,98877.59
2023-04-03T10:14:00.832Z,98872.94
2023-04-03T10:17:27.587Z,98865.50
2023-04-03T10:20:39.559Z,98866.22
2023-04-03T10:23:48.158Z,98873.44
2023-04-03T10:26:59.640Z,98877.63
2023-04-03T10:30:15.293Z,98864.91
2023-04-03T10:33:42.615Z,98868.81
2023-04-03T10:36:56.651Z,98866.91
2023-04-03T10:40:05.363Z,98869.28
2023-04-03T10:43:14.707Z,98871.09
2023-04-03T10:46:24.703Z,98881.44
2023-04-03T10:49:53.529Z,98890.41
2023-04-03T10:53:12.904Z,98885.28
2023-04-03T10:56:23.219Z,98896.06
2023-04-03T10:59:32.943Z,98890.59
2023-04-03T11:02:45.159Z,98887.50
2023-04-03T11:05:52.741Z,98890.28
2023-04-03T11:09:04.536Z,98895.44
2023-04-03T11:12:15.189Z,98890.59
2023-04-03T11:15:23.271Z,98889.59
2023-04-03T11:18:35.315Z,98895.72
2023-04-03T11:21:43.652Z,98893.91
2023-04-03T11:25:00.108Z,98888.72
2023-04-03T11:28:07.713Z,98880.84
2023-04-03T11:31:27.590Z,98872.56
2023-04-03T11:34:41.492Z,98873.31
2023-04-03T11:37:48.862Z,98871.66
2023-04-03T11:40:55.671Z,98865.81
2023-04-03T11:44:02.153Z,98867.66
2023-04-03T11:47:07.183Z,98860.78
2023-04-03T11:50:45.435Z,98861.44
2023-04-03T11:53:49.893Z,98859.63
2023-04-03T11:56:55.392Z,98853.09
2023-04-03T11:59:59.358Z,98856.78
2023-04-03T12:03:03.455Z,98849.16
2023-04-03T12:06:57.759Z,98851.66
2023-04-03T12:10:03.818Z,98838.31
2023-04-03T12:13:20.145Z,98832.78
2023-04-03T12:16:26.190Z,98831.41
2023-04-03T12:23:25.577Z,98834.16
2023-04-03T12:26:42.098Z,98826.59
2023-04-03T12:29:58.608Z,98821.84
2023-04-03T12:33:27.782Z,98823.69
2023-04-03T12:36:43.336Z,98813.41
2023-04-03T12:40:05.579Z,98810.28
2023-04-03T12:43:39.510Z,98811.16
2023-04-03T12:46:48.682Z,98804.97
2023-04-03T12:49:54.696Z,98809.03
2023-04-03T12:53:04.803Z,98810.69
2023-04-03T12:56:26.533Z,98807.41
2023-04-03T12:59:30.442Z,98802.41
2023-04-03T13:02:35.989Z,98803.78
2023-04-03T13:05:40.967Z,98795.47
2023-04-03T13:08:52.584Z,98784.47
2023-04-03T13:12:03.333Z,98792.03
2023-04-03T13:15:16.604Z,98794.22
2023-04-03T13:18:28.837Z,98780.00
2023-04-03T13:21:36.293Z,98777.09
2023-04-03T13:24:41.701Z,98771.78
2023-04-03T13:27:47.514Z,98771.06
2023-04-03T13:31:03.060Z,98763.03
2023-04-03T13:34:13.896Z,98771.03
2023-04-03T13:37:25.941Z,98768.09
2023-04-03T13:40:35.146Z,98760.50
2023-04-03T13:43:47.002Z,98754.88
2023-04-03T13:46:51.611Z,98752.59
2023-04-03T13:50:04.394Z,98733.97
2023-04-03T13:53:16.083Z,98724.66
2023-04-03T13:56:26.649Z,98713.53
2023-04-03T13:59:34.107Z,98721.00
2023-04-03T14:02:42.194Z,98715.84
2023-04-03T14:05:46.899Z,98708.97
2023-04-03T14:08:51.252Z,98690.66
2023-04-03T14:11:57.513Z,98701.84
2023-04-03T14:15:04.241Z,98692.94
2023-04-03T14:18:08.289Z,98700.25
2023-04-03T14:21:14.748Z,98689.78
2023-04-03T14:24:18.920Z,98698.91
2023-04-03T14:27:24.499Z,98698.25
2023-04-03T14:30:33.609Z,98696.78
2023-04-03T14:33:37.981Z,98691.06
2023-04-03T14:36:43.063Z,98698.66
2023-04-03T14:39:47.749Z,98699.06
2023-04-03T14:42:51.790Z,98698.16
2023-04-03T14:45:57.115Z,98690.50
2023-04-03T14:49:01.341Z,98690.47
2023-04-03T14:52:05.579Z,98693.47
2023-04-03T14:55:09.884Z,98679.41
2023-04-03T14:58:17.541Z,98677.78
2023-04-03T15:01:22.818Z,98678.53
2023-04-03T15:04:27.268Z,98673.50
2023-04-03T15:07:33.480Z,98667.91
2023-04-03T15:10:37.492Z,98662.94
2023-04-03T15:13:42.174Z,98660.53
2023-04-03T15:16:47.598Z,98657.63
2023-04-03T15:19:51.281Z,98650.59
2023-04-03T15:22:57.405Z,98646.66
2023-04-03T15:26:01.367Z,98646.28
2023-04-03T15:29:06.097Z,98640.97
2023-04-03T15:32:12.030Z,98640.69
2023-04-03T15:35:15.993Z,98636.75
2023-04-03T15:38:19.712Z,98619.94
2023-04-03T15:41:23.443Z,98608.41
2023-04-03T15:44:27.385Z,98604.63
2023-04-03T15:47:32.833Z,98603.00
2023-04-03T15:50:37.512Z,98602.56
2023-04-03T15:53:41.551Z,98600.69
2023-04-03T15:56:45.246Z,98595.66
2023-04-03T15:59:49.020Z,98590.72
2023-04-03T16:02:58.726Z,98593.25
2023-04-03T16:06:03.828Z,98583.16
2023-04-03T16:09:07.791Z,98582.72
2023-04-03T16:12:11.762Z,98572.19
2023-04-03T16:15:15.633Z,98564.44
2023-04-03T16:18:21.046Z,98568.13
2023-04-03T16:21:25.910Z,98554.19
2023-04-03T16:24:29.721Z,98545.84
2023-04-03T16:27:33.488Z,98531.81
2023-04-03T16:30:37.305Z,98522.44
2023-04-03T16:33:42.597Z,98528.03
2023-04-03T16:36:46.465Z,98508.44
2023-04-03T16:39:50.616Z,98507.56
2023-04-03T16:42:54.409Z,98497.09
2023-04-03T16:45:58.124Z,98492.72
2023-04-03T16:49:03.301Z,98483.78
2023-04-03T16:52:07.853Z,98474.84
2023-04-03T16:55:11.663Z,98462.53
2023-04-03T16:58:16.064Z,98467.31
2023-04-03T17:01:21.367Z,98471.00
2023-04-03T17:04:27.322Z,98474.22
2023-04-03T17:07:31.055Z,98466.34
2023-04-03T17:10:36.618Z,98454.09
2023-04-03T17:13:40.691Z,98447.81
2023-04-03T17:16:44.572Z,98436.53
2023-04-03T17:19:50.287Z,98426.66
2023-04-03T17:22:54.096Z,98418.81
2023-04-03T17:25:58.037Z,98430.56
2023-04-03T17:29:01.798Z,98424.72
2023-04-03T17:32:05.821Z,98420.97
2023-04-03T17:35:11.982Z,98416.00
2023-04-03T17:38:15.911Z,98411.50
2023-04-03T17:41:19.536Z,98425.75
2023-04-03T17:44:23.953Z,98425.78
2023-04-03T17:47:27.859Z,98422.78
2023-04-03T17:50:33.315Z,98411.34
2023-04-03T17:53:37.124Z,98406.28
2023-04-03T17:56:43.808Z,98411.25
2023-04-03T17:59:47.713Z,98410.69
2023-04-03T18:02:54.534Z,98424.13
2023-04-03T18:05:59.828Z,98424.94
2023-04-03T18:09:07.521Z,98417.84
2023-04-03T18:12:11.793Z,98425.63
2023-04-03T18:15:15.761Z,98425.97
2023-04-03T18:18:19.572Z,98425.63
2023-04-03T18:21:24.783Z,98434.53
2023-04-03T18:24:29.058Z,98436.44
2023-04-03T18:27:32.919Z,98445.66
2023-04-03T18:30:36.961Z,98442.09
2023-04-03T18:33:40.730Z,98450.50
2023-04-03T18:36:46.313Z,98453.81
2023-04-03T18:39:50.150Z,98444.09
2023-04-03T18:42:54.049Z,98440.03
2023-04-03T18:45:58.049Z,98437.59
2023-04-03T18:49:02.031Z,98449.78
2023-04-03T18:52:07.269Z,98439.88
2023-04-03T18:55:14.125Z,98446.25
2023-04-03T18:58:17.907Z,98458.72
2023-04-03T19:01:21.924Z,98450.50
2023-04-03T19:04:26.207Z,98431.84
2023-04-03T19:07:31.519Z,98430.22
2023-04-03T19:10:35.170Z,98418.75
2023-04-03T19:13:47.060Z,98421.13
2023-04-03T19:17:04.388Z,98421.47
2023-04-03T19:20:09.879Z,98429.47
2023-04-03T19:23:15.189Z,98434.94
2023-04-03T19:26:19.167Z,98431.06
2023-04-03T19:29:23.233Z,98428.47
2023-04-03T19:32:28.237Z,98432.81
2023-04-03T19:35:32.060Z,98431.03
2023-04-03T19:38:37.615Z,98423.44
2023-04-03T19:41:45.302Z,98420.28
2023-04-03T19:44:50.066Z,98418.16
2023-04-03T19:47:54.018Z,98421.78
2023-04-03T19:50:57.683Z,98421.28
2023-04-03T19:54:02.792Z,98389.59
2023-04-03T19:57:06.799Z,98410.97
2023-04-03T20:00:11.722Z,98412.97
2023-04-03T20:03:15.641Z,98401.72
2023-04-03T20:06:19.314Z,98398.81
2023-04-03T20:09:24.540Z,98398.06
2023-04-03T20:12:28.276Z,98406.44
2023-04-03T20:15:40.433Z,98405.53
2023-04-03T20:18:44.237Z,98402.94
2023-04-03T20:21:48.055Z,98412.19
2023-04-03T20:24:53.294Z,98415.31
2023-04-03T20:27:57.157Z,98404.44
2023-04-03T20:31:02.643Z,98388.19
2023-04-03T20:34:06.401Z,98382.59
2023-04-03T20:37:10.727Z,98379.44
2023-04-03T20:40:16.294Z,98377.91
2023-04-03T20:43:21.913Z,98363.72
2023-04-03T20:46:38.319Z,98350.03
2023-04-03T20:49:53.846Z,98342.47
2023-04-03T20:52:59.162Z,98359.84
2023-04-03T20:56:04.306Z,98351.41
2023-04-03T20:59:08.619Z,98341.81
2023-04-03T21:02:12.873Z,98315.06
2023-04-03T21:05:18.332Z,98333.81
2023-04-03T21:08:59.690Z,98344.47
2023-04-03T21:12:40.631Z,98355.38
2023-04-03T21:15:55.098Z,98349.94
2023-04-03T21:19:16.554Z,98337.50
2023-04-03T21:22:22.164Z,98339.09
2023-04-03T21:25:25.975Z,98331.56
2023-04-03T21:28:29.673Z,98321.13
2023-04-03T21:31:48.674Z,98293.69
2023-04-03T21:34:53.769Z,98304.94
2023-04-03T21:37:58.076Z,98306.16
2023-04-03T21:41:01.802Z,98310.72
2023-04-03T21:44:05.616Z,98311.66
2023-04-03T21:47:09.339Z,98310.28
2023-04-03T21:50:14.649Z,98309.41
2023-04-03T21:53:19.733Z,98320.47
2023-04-03T21:56:24.547Z,98315.44
2023-04-03T21:59:28.346Z,98314.31
2023-04-03T22:02:33.928Z,98324.28
2023-04-03T22:05:39.083Z,98319.03
2023-04-03T22:08:43.017Z,98324.88
2023-04-03T22:11:46.942Z,98323.38
2023-04-03T22:14:51.636Z,98324.28
2023-04-03T22:17:55.418Z,98316.06
2023-04-03T22:21:00.618Z,98314.44
2023-04-03T22:24:04.692Z,98306.38
2023-04-03T22:27:08.248Z,98302.75
2023-04-03T22:30:13.045Z,98302.50
2023-04-03T22:33:16.756Z,98296.94
2023-04-03T22:36:21.976Z,98287.69
2023-04-03T22:39:26.129Z,98288.72
2023-04-03T22:42:30.058Z,98284.16
2023-04-03T22:45:33.928Z,98283.78
2023-04-03T22:48:38.855Z,98290.00
2023-04-03T22:51:43.932Z,98297.47
2023-04-03T22:54:47.828Z,98305.69
2023-04-03T22:57:51.807Z,98299.81
2023-04-03T23:00:56.083Z,98298.47
2023-04-03T23:03:59.708Z,98298.56
2023-04-03T23:07:05.399Z,98304.97
2023-04-03T23:10:09.768Z,98295.56
2023-04-03T23:13:13.370Z,98302.19
2023-04-03T23:16:17.554Z,98299.41
2023-04-03T23:19:21.158Z,98291.34
2023-04-03T23:22:26.097Z,98284.75
2023-04-03T23:25:29.530Z,98280.81
2023-04-03T23:28:33.118Z,98276.19
2023-04-03T23:31:36.786Z,98267.53
2023-04-03T23:34:40.679Z,98270.22
2023-04-03T23:37:45.616Z,98272.13
2023-04-03T23:40:49.187Z,98274.09
2023-04-03T23:43:53.073Z,98262.47
2023-04-03T23:46:58.231Z,98257.91
2023-04-03T23:50:01.669Z,98251.72
2023-04-03T23:53:06.823Z,98247.19
2023-04-03T23:56:13.377Z,98249.91
2023-04-03T23:59:16.905Z,98243.97
